sensor_id;sensor_type;location;lat;lon;timestamp;P1;durP1;ratioP1;P2;durP2;ratioP2
10389;SDS011;5241;47.830;12.972;2023-03-01T00:00:46;25.33;;;17.07;;
10389;SDS011;5241;47.830;12.972;2023-03-01T00:03:11;23.43;;;16.03;;
10389;SDS011;5241;47.830;12.972;2023-03-01T00:05:43;24.03;;;16.63;;
10389;SDS011;5241;47.830;12.972;2023-03-01T00:08:09;26.70;;;17.33;;
10389;SDS011;5241;47.830;12.972;2023-03-01T00:10:35;23.73;;;16.27;;
10389;SDS011;5241;47.830;12.972;2023-03-01T00:13:00;26.77;;;17.90;;
10389;SDS011;5241;47.830;12.972;2023-03-01T00:15:26;26.07;;;18.10;;
10389;SDS011;5241;47.830;12.972;2023-03-01T00:17:52;22.53;;;16.20;;
10389;SDS011;5241;47.830;12.972;2023-03-01T00:20:17;24.50;;;17.40;;
10389;SDS011;5241;47.830;12.972;2023-03-01T00:22:43;28.63;;;17.97;;
10389;SDS011;5241;47.830;12.972;2023-03-01T00:25:08;25.70;;;17.07;;
10389;SDS011;5241;47.830;12.972;2023-03-01T00:27:34;27.37;;;18.70;;
10389;SDS011;5241;47.830;12.972;2023-03-01T00:29:59;26.23;;;18.77;;
10389;SDS011;5241;47.830;12.972;2023-03-01T00:32:25;27.93;;;18.17;;
10389;SDS011;5241;47.830;12.972;2023-03-01T00:34:50;24.73;;;16.83;;
10389;SDS011;5241;47.830;12.972;2023-03-01T00:37:23;26.13;;;18.90;;
10389;SDS011;5241;47.830;12.972;2023-03-01T00:39:49;29.80;;;19.27;;
10389;SDS011;5241;47.830;12.972;2023-03-01T00:42:15;26.63;;;19.20;;
10389;SDS011;5241;47.830;12.972;2023-03-01T00:44:41;30.37;;;19.47;;
10389;SDS011;5241;47.830;12.972;2023-03-01T00:47:07;30.57;;;20.30;;
10389;SDS011;5241;47.830;12.972;2023-03-01T00:49:32;34.07;;;20.63;;
10389;SDS011;5241;47.830;12.972;2023-03-01T00:51:59;30.10;;;19.60;;
10389;SDS011;5241;47.830;12.972;2023-03-01T00:54:24;33.37;;;21.17;;
10389;SDS011;5241;47.830;12.972;2023-03-01T00:56:50;30.53;;;19.30;;
10389;SDS011;5241;47.830;12.972;2023-03-01T00:59:15;30.77;;;18.80;;
10389;SDS011;5241;47.830;12.972;2023-03-01T01:01:41;29.67;;;18.93;;
10389;SDS011;5241;47.830;12.972;2023-03-01T01:04:08;30.17;;;20.13;;
10389;SDS011;5241;47.830;12.972;2023-03-01T01:06:36;30.37;;;20.27;;
10389;SDS011;5241;47.830;12.972;2023-03-01T01:09:04;31.10;;;19.87;;
10389;SDS011;5241;47.830;12.972;2023-03-01T01:11:32;30.00;;;19.57;;
10389;SDS011;5241;47.830;12.972;2023-03-01T01:13:58;31.43;;;21.67;;
10389;SDS011;5241;47.830;12.972;2023-03-01T01:16:25;33.37;;;21.73;;
10389;SDS011;5241;47.830;12.972;2023-03-01T01:18:52;34.40;;;22.73;;
10389;SDS011;5241;47.830;12.972;2023-03-01T01:21:19;32.77;;;22.37;;
10389;SDS011;5241;47.830;12.972;2023-03-01T01:23:46;35.07;;;22.37;;
10389;SDS011;5241;47.830;12.972;2023-03-01T01:26:14;37.03;;;22.63;;
10389;SDS011;5241;47.830;12.972;2023-03-01T01:28:45;37.33;;;22.87;;
10389;SDS011;5241;47.830;12.972;2023-03-01T01:31:11;35.13;;;23.00;;
10389;SDS011;5241;47.830;12.972;2023-03-01T01:33:37;41.13;;;24.50;;
10389;SDS011;5241;47.830;12.972;2023-03-01T01:36:03;39.47;;;24.63;;
10389;SDS011;5241;47.830;12.972;2023-03-01T01:38:30;43.07;;;25.27;;
10389;SDS011;5241;47.830;12.972;2023-03-01T01:40:55;35.23;;;23.07;;
10389;SDS011;5241;47.830;12.972;2023-03-01T01:43:22;41.20;;;25.67;;
10389;SDS011;5241;47.830;12.972;2023-03-01T01:45:57;38.57;;;23.33;;
10389;SDS011;5241;47.830;12.972;2023-03-01T01:48:48;35.73;;;23.70;;
10389;SDS011;5241;47.830;12.972;2023-03-01T01:51:19;39.37;;;24.53;;
10389;SDS011;5241;47.830;12.972;2023-03-01T01:53:48;40.57;;;24.17;;
10389;SDS011;5241;47.830;12.972;2023-03-01T01:56:18;38.53;;;24.60;;
10389;SDS011;5241;47.830;12.972;2023-03-01T01:58:45;36.67;;;23.00;;
10389;SDS011;5241;47.830;12.972;2023-03-01T02:01:12;35.77;;;23.27;;
10389;SDS011;5241;47.830;12.972;2023-03-01T02:03:38;38.07;;;23.87;;
10389;SDS011;5241;47.830;12.972;2023-03-01T02:06:11;38.17;;;24.23;;
10389;SDS011;5241;47.830;12.972;2023-03-01T02:08:43;36.87;;;23.03;;
10389;SDS011;5241;47.830;12.972;2023-03-01T02:11:11;38.10;;;24.03;;
10389;SDS011;5241;47.830;12.972;2023-03-01T02:13:39;34.10;;;21.23;;
10389;SDS011;5241;47.830;12.972;2023-03-01T02:16:09;32.53;;;20.53;;
10389;SDS011;5241;47.830;12.972;2023-03-01T02:18:36;32.07;;;20.47;;
10389;SDS011;5241;47.830;12.972;2023-03-01T02:24:17;34.90;;;21.63;;
10389;SDS011;5241;47.830;12.972;2023-03-01T02:27:03;30.73;;;19.97;;
10389;SDS011;5241;47.830;12.972;2023-03-01T02:29:28;29.83;;;19.87;;
10389;SDS011;5241;47.830;12.972;2023-03-01T02:31:54;29.97;;;19.40;;
10389;SDS011;5241;47.830;12.972;2023-03-01T02:34:23;30.23;;;20.73;;
10389;SDS011;5241;47.830;12.972;2023-03-01T02:37:00;34.33;;;21.23;;
10389;SDS011;5241;47.830;12.972;2023-03-01T02:39:40;30.17;;;20.43;;
10389;SDS011;5241;47.830;12.972;2023-03-01T02:42:10;30.17;;;20.90;;
10389;SDS011;5241;47.830;12.972;2023-03-01T02:44:39;32.83;;;21.30;;
10389;SDS011;5241;47.830;12.972;2023-03-01T02:47:05;36.27;;;22.03;;
10389;SDS011;5241;47.830;12.972;2023-03-01T02:49:32;37.03;;;22.37;;
10389;SDS011;5241;47.830;12.972;2023-03-01T02:54:33;31.50;;;20.83;;
10389;SDS011;5241;47.830;12.972;2023-03-01T02:57:04;32.67;;;20.90;;
10389;SDS011;5241;47.830;12.972;2023-03-01T02:59:31;33.67;;;22.17;;
10389;SDS011;5241;47.830;12.972;2023-03-01T03:02:04;30.80;;;21.20;;
10389;SDS011;5241;47.830;12.972;2023-03-01T03:04:30;34.50;;;21.97;;
10389;SDS011;5241;47.830;12.972;2023-03-01T03:06:55;37.40;;;20.53;;
10389;SDS011;5241;47.830;12.972;2023-03-01T03:09:21;38.70;;;22.67;;
10389;SDS011;5241;47.830;12.972;2023-03-01T03:11:46;35.67;;;21.60;;
10389;SDS011;5241;47.830;12.972;2023-03-01T03:14:13;34.57;;;21.07;;
10389;SDS011;5241;47.830;12.972;2023-03-01T03:16:46;32.30;;;21.43;;
10389;SDS011;5241;47.830;12.972;2023-03-01T03:19:14;32.23;;;19.30;;
10389;SDS011;5241;47.830;12.972;2023-03-01T03:21:41;30.63;;;20.53;;
10389;SDS011;5241;47.830;12.972;2023-03-01T03:24:07;33.57;;;21.27;;
10389;SDS011;5241;47.830;12.972;2023-03-01T03:26:33;32.90;;;21.30;;
10389;SDS011;5241;47.830;12.972;2023-03-01T03:28:58;32.57;;;20.13;;
10389;SDS011;5241;47.830;12.972;2023-03-01T03:31:24;31.00;;;19.57;;
10389;SDS011;5241;47.830;12.972;2023-03-01T03:33:50;30.13;;;20.53;;
10389;SDS011;5241;47.830;12.972;2023-03-01T03:36:16;31.67;;;21.10;;
10389;SDS011;5241;47.830;12.972;2023-03-01T03:38:43;31.07;;;20.93;;
10389;SDS011;5241;47.830;12.972;2023-03-01T03:41:10;31.20;;;19.80;;
10389;SDS011;5241;47.830;12.972;2023-03-01T03:43:37;36.40;;;21.03;;
10389;SDS011;5241;47.830;12.972;2023-03-01T03:46:04;37.73;;;21.70;;
10389;SDS011;5241;47.830;12.972;2023-03-01T03:48:34;34.93;;;21.63;;
10389;SDS011;5241;47.830;12.972;2023-03-01T03:51:09;31.37;;;20.53;;
10389;SDS011;5241;47.830;12.972;2023-03-01T03:53:39;30.73;;;20.60;;
10389;SDS011;5241;47.830;12.972;2023-03-01T03:56:05;31.33;;;19.27;;
10389;SDS011;5241;47.830;12.972;2023-03-01T03:58:31;31.77;;;20.00;;
10389;SDS011;5241;47.830;12.972;2023-03-01T04:00:57;31.37;;;19.33;;
10389;SDS011;5241;47.830;12.972;2023-03-01T04:03:23;31.80;;;20.63;;
10389;SDS011;5241;47.830;12.972;2023-03-01T04:05:50;29.53;;;19.40;;
10389;SDS011;5241;47.830;12.972;2023-03-01T04:08:17;29.53;;;19.53;;
10389;SDS011;5241;47.830;12.972;2023-03-01T04:10:45;31.60;;;19.37;;
10389;SDS011;5241;47.830;12.972;2023-03-01T04:13:14;30.47;;;19.30;;
10389;SDS011;5241;47.830;12.972;2023-03-01T04:15:50;30.20;;;19.20;;
10389;SDS011;5241;47.830;12.972;2023-03-01T04:18:17;30.57;;;18.40;;
10389;SDS011;5241;47.830;12.972;2023-03-01T04:20:45;28.40;;;18.07;;
10389;SDS011;5241;47.830;12.972;2023-03-01T04:23:18;27.30;;;18.37;;
10389;SDS011;5241;47.830;12.972;2023-03-01T04:25:49;27.53;;;18.10;;
10389;SDS011;5241;47.830;12.972;2023-03-01T04:28:27;27.97;;;18.47;;
10389;SDS011;5241;47.830;12.972;2023-03-01T04:31:08;28.73;;;17.97;;
10389;SDS011;5241;47.830;12.972;2023-03-01T04:33:39;28.93;;;18.57;;
10389;SDS011;5241;47.830;12.972;2023-03-01T04:36:20;26.10;;;17.40;;
10389;SDS011;5241;47.830;12.972;2023-03-01T04:38:48;25.63;;;17.23;;
10389;SDS011;5241;47.830;12.972;2023-03-01T04:41:15;29.27;;;18.13;;
10389;SDS011;5241;47.830;12.972;2023-03-01T04:43:42;30.00;;;18.77;;
10389;SDS011;5241;47.830;12.972;2023-03-01T04:46:09;25.37;;;17.53;;
10389;SDS011;5241;47.830;12.972;2023-03-01T04:48:37;29.53;;;17.97;;
10389;SDS011;5241;47.830;12.972;2023-03-01T04:51:04;28.43;;;18.77;;
10389;SDS011;5241;47.830;12.972;2023-03-01T04:53:31;28.13;;;19.00;;
10389;SDS011;5241;47.830;12.972;2023-03-01T04:55:57;28.93;;;19.40;;
10389;SDS011;5241;47.830;12.972;2023-03-01T04:58:25;31.10;;;18.63;;
10389;SDS011;5241;47.830;12.972;2023-03-01T05:00:52;31.83;;;19.20;;
10389;SDS011;5241;47.830;12.972;2023-03-01T05:03:18;29.27;;;18.43;;
10389;SDS011;5241;47.830;12.972;2023-03-01T05:05:45;28.50;;;18.67;;
10389;SDS011;5241;47.830;12.972;2023-03-01T05:08:12;30.30;;;19.27;;
10389;SDS011;5241;47.830;12.972;2023-03-01T05:10:51;28.80;;;19.03;;
10389;SDS011;5241;47.830;12.972;2023-03-01T05:13:18;26.47;;;18.63;;
10389;SDS011;5241;47.830;12.972;2023-03-01T05:15:54;28.13;;;18.63;;
10389;SDS011;5241;47.830;12.972;2023-03-01T05:18:21;32.53;;;18.80;;
10389;SDS011;5241;47.830;12.972;2023-03-01T05:20:50;28.40;;;19.17;;
10389;SDS011;5241;47.830;12.972;2023-03-01T05:23:23;32.63;;;19.47;;
10389;SDS011;5241;47.830;12.972;2023-03-01T05:25:49;30.00;;;19.27;;
10389;SDS011;5241;47.830;12.972;2023-03-01T05:28:17;30.97;;;20.03;;
10389;SDS011;5241;47.830;12.972;2023-03-01T05:30:44;29.53;;;19.47;;
10389;SDS011;5241;47.830;12.972;2023-03-01T05:33:11;33.70;;;21.27;;
10389;SDS011;5241;47.830;12.972;2023-03-01T05:35:40;28.47;;;19.33;;
10389;SDS011;5241;47.830;12.972;2023-03-01T05:38:07;30.20;;;19.37;;
10389;SDS011;5241;47.830;12.972;2023-03-01T05:40:33;31.80;;;20.07;;
10389;SDS011;5241;47.830;12.972;2023-03-01T05:42:59;33.07;;;21.57;;
10389;SDS011;5241;47.830;12.972;2023-03-01T05:45:26;32.47;;;20.73;;
10389;SDS011;5241;47.830;12.972;2023-03-01T05:47:52;33.57;;;22.07;;
10389;SDS011;5241;47.830;12.972;2023-03-01T05:50:27;33.93;;;21.23;;
10389;SDS011;5241;47.830;12.972;2023-03-01T05:52:58;31.47;;;21.13;;
10389;SDS011;5241;47.830;12.972;2023-03-01T05:55:25;32.47;;;19.27;;
10389;SDS011;5241;47.830;12.972;2023-03-01T05:57:51;30.67;;;19.60;;
10389;SDS011;5241;47.830;12.972;2023-03-01T06:00:17;28.23;;;19.53;;
10389;SDS011;5241;47.830;12.972;2023-03-01T06:02:44;32.77;;;20.00;;
10389;SDS011;5241;47.830;12.972;2023-03-01T06:05:11;32.67;;;20.63;;
10389;SDS011;5241;47.830;12.972;2023-03-01T06:07:38;33.27;;;19.97;;
10389;SDS011;5241;47.830;12.972;2023-03-01T06:10:04;33.97;;;21.03;;
10389;SDS011;5241;47.830;12.972;2023-03-01T06:12:35;33.00;;;20.90;;
10389;SDS011;5241;47.830;12.972;2023-03-01T06:15:02;33.07;;;21.17;;
10389;SDS011;5241;47.830;12.972;2023-03-01T06:17:30;31.27;;;20.60;;
10389;SDS011;5241;47.830;12.972;2023-03-01T06:19:57;35.27;;;21.67;;
10389;SDS011;5241;47.830;12.972;2023-03-01T06:22:23;38.40;;;21.60;;
10389;SDS011;5241;47.830;12.972;2023-03-01T06:24:48;33.97;;;21.63;;
10389;SDS011;5241;47.830;12.972;2023-03-01T06:27:14;32.07;;;20.60;;
10389;SDS011;5241;47.830;12.972;2023-03-01T06:29:40;31.07;;;20.40;;
10389;SDS011;5241;47.830;12.972;2023-03-01T06:32:05;32.57;;;21.07;;
10389;SDS011;5241;47.830;12.972;2023-03-01T06:34:31;30.10;;;20.37;;
10389;SDS011;5241;47.830;12.972;2023-03-01T06:36:57;32.83;;;20.97;;
10389;SDS011;5241;47.830;12.972;2023-03-01T06:39:22;30.53;;;21.33;;
10389;SDS011;5241;47.830;12.972;2023-03-01T06:41:48;32.93;;;21.33;;
10389;SDS011;5241;47.830;12.972;2023-03-01T06:44:13;32.60;;;21.80;;
10389;SDS011;5241;47.830;12.972;2023-03-01T06:46:39;31.83;;;21.30;;
10389;SDS011;5241;47.830;12.972;2023-03-01T06:49:05;31.10;;;21.30;;
10389;SDS011;5241;47.830;12.972;2023-03-01T06:51:34;31.20;;;20.30;;
10389;SDS011;5241;47.830;12.972;2023-03-01T06:54:00;35.47;;;21.53;;
10389;SDS011;5241;47.830;12.972;2023-03-01T06:56:26;34.23;;;21.07;;
10389;SDS011;5241;47.830;12.972;2023-03-01T06:58:51;36.20;;;22.03;;
10389;SDS011;5241;47.830;12.972;2023-03-01T07:01:17;34.67;;;20.40;;
10389;SDS011;5241;47.830;12.972;2023-03-01T07:03:42;34.60;;;22.80;;
10389;SDS011;5241;47.830;12.972;2023-03-01T07:06:09;36.53;;;23.00;;
10389;SDS011;5241;47.830;12.972;2023-03-01T07:08:35;30.43;;;21.17;;
10389;SDS011;5241;47.830;12.972;2023-03-01T07:11:00;33.80;;;22.17;;
10389;SDS011;5241;47.830;12.972;2023-03-01T07:13:27;36.63;;;22.27;;
10389;SDS011;5241;47.830;12.972;2023-03-01T07:15:53;36.53;;;21.93;;
10389;SDS011;5241;47.830;12.972;2023-03-01T07:18:18;37.53;;;21.73;;
10389;SDS011;5241;47.830;12.972;2023-03-01T07:20:44;32.53;;;21.80;;
10389;SDS011;5241;47.830;12.972;2023-03-01T07:23:09;30.93;;;20.50;;
10389;SDS011;5241;47.830;12.972;2023-03-01T07:25:35;30.07;;;21.43;;
10389;SDS011;5241;47.830;12.972;2023-03-01T07:28:01;30.87;;;20.87;;
10389;SDS011;5241;47.830;12.972;2023-03-01T07:30:26;32.73;;;22.13;;
10389;SDS011;5241;47.830;12.972;2023-03-01T07:32:53;32.77;;;21.30;;
10389;SDS011;5241;47.830;12.972;2023-03-01T07:35:20;31.00;;;20.37;;
10389;SDS011;5241;47.830;12.972;2023-03-01T07:37:46;30.27;;;20.13;;
10389;SDS011;5241;47.830;12.972;2023-03-01T07:40:12;33.17;;;21.07;;
10389;SDS011;5241;47.830;12.972;2023-03-01T07:42:38;31.60;;;20.87;;
10389;SDS011;5241;47.830;12.972;2023-03-01T07:45:04;30.10;;;21.20;;
10389;SDS011;5241;47.830;12.972;2023-03-01T07:47:30;30.10;;;20.33;;
10389;SDS011;5241;47.830;12.972;2023-03-01T07:49:56;32.23;;;21.00;;
10389;SDS011;5241;47.830;12.972;2023-03-01T07:52:22;34.37;;;22.10;;
10389;SDS011;5241;47.830;12.972;2023-03-01T07:54:47;32.00;;;21.63;;
10389;SDS011;5241;47.830;12.972;2023-03-01T07:57:13;46.53;;;29.63;;
10389;SDS011;5241;47.830;12.972;2023-03-01T07:59:38;39.03;;;23.63;;
10389;SDS011;5241;47.830;12.972;2023-03-01T08:02:04;34.53;;;23.23;;
10389;SDS011;5241;47.830;12.972;2023-03-01T08:04:30;32.10;;;21.43;;
10389;SDS011;5241;47.830;12.972;2023-03-01T08:06:56;30.97;;;20.40;;
10389;SDS011;5241;47.830;12.972;2023-03-01T08:09:22;33.50;;;21.60;;
10389;SDS011;5241;47.830;12.972;2023-03-01T08:11:47;32.03;;;21.17;;
10389;SDS011;5241;47.830;12.972;2023-03-01T08:14:13;30.73;;;19.87;;
10389;SDS011;5241;47.830;12.972;2023-03-01T08:16:38;31.67;;;20.30;;
10389;SDS011;5241;47.830;12.972;2023-03-01T08:19:05;26.43;;;18.93;;
10389;SDS011;5241;47.830;12.972;2023-03-01T08:21:31;28.93;;;20.17;;
10389;SDS011;5241;47.830;12.972;2023-03-01T08:23:59;30.20;;;20.40;;
10389;SDS011;5241;47.830;12.972;2023-03-01T08:26:25;28.73;;;20.20;;
10389;SDS011;5241;47.830;12.972;2023-03-01T08:28:51;28.83;;;19.73;;
10389;SDS011;5241;47.830;12.972;2023-03-01T08:31:24;27.63;;;20.63;;
10389;SDS011;5241;47.830;12.972;2023-03-01T08:34:11;32.67;;;20.40;;
10389;SDS011;5241;47.830;12.972;2023-03-01T08:36:39;30.67;;;21.77;;
10389;SDS011;5241;47.830;12.972;2023-03-01T08:39:06;27.03;;;18.97;;
10389;SDS011;5241;47.830;12.972;2023-03-01T08:41:33;29.40;;;21.23;;
10389;SDS011;5241;47.830;12.972;2023-03-01T08:43:59;30.83;;;20.73;;
10389;SDS011;5241;47.830;12.972;2023-03-01T08:46:29;29.57;;;21.40;;
10389;SDS011;5241;47.830;12.972;2023-03-01T08:49:06;27.63;;;19.23;;
10389;SDS011;5241;47.830;12.972;2023-03-01T08:51:33;25.80;;;19.27;;
10389;SDS011;5241;47.830;12.972;2023-03-01T08:54:02;28.00;;;20.20;;
10389;SDS011;5241;47.830;12.972;2023-03-01T08:56:29;25.17;;;19.50;;
10389;SDS011;5241;47.830;12.972;2023-03-01T08:58:54;23.57;;;17.83;;
10389;SDS011;5241;47.830;12.972;2023-03-01T09:01:20;26.57;;;19.70;;
10389;SDS011;5241;47.830;12.972;2023-03-01T09:03:46;22.90;;;18.40;;
10389;SDS011;5241;47.830;12.972;2023-03-01T09:06:12;25.70;;;18.80;;
10389;SDS011;5241;47.830;12.972;2023-03-01T09:08:40;25.67;;;19.73;;
10389;SDS011;5241;47.830;12.972;2023-03-01T09:11:08;22.83;;;18.70;;
10389;SDS011;5241;47.830;12.972;2023-03-01T09:13:35;25.37;;;20.33;;
10389;SDS011;5241;47.830;12.972;2023-03-01T09:16:02;26.10;;;20.13;;
10389;SDS011;5241;47.830;12.972;2023-03-01T09:18:29;23.33;;;18.80;;
10389;SDS011;5241;47.830;12.972;2023-03-01T09:21:05;26.97;;;20.10;;
10389;SDS011;5241;47.830;12.972;2023-03-01T09:23:37;26.87;;;19.53;;
10389;SDS011;5241;47.830;12.972;2023-03-01T09:26:07;21.73;;;17.87;;
10389;SDS011;5241;47.830;12.972;2023-03-01T09:28:34;21.73;;;18.07;;
10389;SDS011;5241;47.830;12.972;2023-03-01T09:31:01;24.93;;;18.60;;
10389;SDS011;5241;47.830;12.972;2023-03-01T09:33:28;23.73;;;19.27;;
10389;SDS011;5241;47.830;12.972;2023-03-01T09:36:02;24.67;;;18.20;;
10389;SDS011;5241;47.830;12.972;2023-03-01T09:38:29;25.30;;;18.67;;
10389;SDS011;5241;47.830;12.972;2023-03-01T09:40:55;23.67;;;19.13;;
10389;SDS011;5241;47.830;12.972;2023-03-01T09:43:23;24.67;;;19.10;;
10389;SDS011;5241;47.830;12.972;2023-03-01T09:46:09;23.03;;;17.80;;
10389;SDS011;5241;47.830;12.972;2023-03-01T09:48:39;24.63;;;18.27;;
10389;SDS011;5241;47.830;12.972;2023-03-01T09:51:18;24.97;;;17.53;;
10389;SDS011;5241;47.830;12.972;2023-03-01T09:53:49;25.53;;;17.90;;
10389;SDS011;5241;47.830;12.972;2023-03-01T09:56:19;23.20;;;17.80;;
10389;SDS011;5241;47.830;12.972;2023-03-01T10:01:35;25.63;;;18.97;;
10389;SDS011;5241;47.830;12.972;2023-03-01T10:04:28;23.93;;;18.07;;
10389;SDS011;5241;47.830;12.972;2023-03-01T10:09:36;25.00;;;19.37;;
10389;SDS011;5241;47.830;12.972;2023-03-01T10:12:04;25.97;;;19.10;;
10389;SDS011;5241;47.830;12.972;2023-03-01T10:14:48;27.57;;;19.30;;
10389;SDS011;5241;47.830;12.972;2023-03-01T10:22:49;24.10;;;18.43;;
10389;SDS011;5241;47.830;12.972;2023-03-01T10:27:52;27.80;;;19.23;;
10389;SDS011;5241;47.830;12.972;2023-03-01T10:33:08;26.00;;;17.47;;
10389;SDS011;5241;47.830;12.972;2023-03-01T10:35:44;23.20;;;17.20;;
10389;SDS011;5241;47.830;12.972;2023-03-01T10:38:13;22.77;;;16.70;;
10389;SDS011;5241;47.830;12.972;2023-03-01T10:40:56;21.50;;;16.60;;
10389;SDS011;5241;47.830;12.972;2023-03-01T10:43:42;24.03;;;17.17;;
10389;SDS011;5241;47.830;12.972;2023-03-01T10:49:18;23.83;;;17.63;;
10389;SDS011;5241;47.830;12.972;2023-03-01T10:51:47;26.57;;;17.00;;
10389;SDS011;5241;47.830;12.972;2023-03-01T10:54:15;22.50;;;17.43;;
10389;SDS011;5241;47.830;12.972;2023-03-01T10:56:51;22.27;;;16.87;;
10389;SDS011;5241;47.830;12.972;2023-03-01T10:59:28;23.60;;;17.93;;
10389;SDS011;5241;47.830;12.972;2023-03-01T11:07:47;22.13;;;17.00;;
10389;SDS011;5241;47.830;12.972;2023-03-01T11:10:19;24.73;;;16.93;;
10389;SDS011;5241;47.830;12.972;2023-03-01T11:12:46;21.60;;;16.17;;
10389;SDS011;5241;47.830;12.972;2023-03-01T11:15:28;22.97;;;17.00;;
10389;SDS011;5241;47.830;12.972;2023-03-01T11:17:54;19.97;;;16.53;;
10389;SDS011;5241;47.830;12.972;2023-03-01T11:20:54;20.03;;;16.03;;
10389;SDS011;5241;47.830;12.972;2023-03-01T11:23:14;24.67;;;19.50;;
10389;SDS011;5241;47.830;12.972;2023-03-01T11:25:41;21.97;;;17.20;;
10389;SDS011;5241;47.830;12.972;2023-03-01T11:28:11;24.47;;;18.80;;
10389;SDS011;5241;47.830;12.972;2023-03-01T11:33:20;27.93;;;18.53;;
10389;SDS011;5241;47.830;12.972;2023-03-01T11:36:12;24.97;;;18.97;;
10389;SDS011;5241;47.830;12.972;2023-03-01T11:38:41;25.37;;;18.47;;
10389;SDS011;5241;47.830;12.972;2023-03-01T11:41:12;22.83;;;18.53;;
10389;SDS011;5241;47.830;12.972;2023-03-01T11:51:52;21.53;;;17.10;;
10389;SDS011;5241;47.830;12.972;2023-03-01T12:13:15;21.23;;;17.57;;
10389;SDS011;5241;47.830;12.972;2023-03-01T12:22:34;19.37;;;16.77;;
10389;SDS011;5241;47.830;12.972;2023-03-01T12:27:55;20.67;;;17.33;;
10389;SDS011;5241;47.830;12.972;2023-03-01T12:36:31;21.30;;;18.00;;
10389;SDS011;5241;47.830;12.972;2023-03-01T12:38:57;21.37;;;18.30;;
10389;SDS011;5241;47.830;12.972;2023-03-01T12:42:01;26.00;;;19.43;;
10389;SDS011;5241;47.830;12.972;2023-03-01T12:53:03;23.00;;;17.50;;
10389;SDS011;5241;47.830;12.972;2023-03-01T12:55:39;21.23;;;18.53;;
10389;SDS011;5241;47.830;12.972;2023-03-01T13:10:14;21.57;;;17.73;;
10389;SDS011;5241;47.830;12.972;2023-03-01T13:13:12;23.20;;;19.50;;
10389;SDS011;5241;47.830;12.972;2023-03-01T13:15:45;22.23;;;18.60;;
10389;SDS011;5241;47.830;12.972;2023-03-01T13:38:56;21.33;;;18.47;;
10389;SDS011;5241;47.830;12.972;2023-03-01T13:49:53;20.20;;;17.13;;
10389;SDS011;5241;47.830;12.972;2023-03-01T13:52:35;18.97;;;16.93;;
10389;SDS011;5241;47.830;12.972;2023-03-01T13:55:18;20.70;;;17.87;;
10389;SDS011;5241;47.830;12.972;2023-03-01T13:57:46;22.20;;;17.93;;
10389;SDS011;5241;47.830;12.972;2023-03-01T14:02:59;19.77;;;17.23;;
10389;SDS011;5241;47.830;12.972;2023-03-01T14:05:27;22.20;;;18.03;;
10389;SDS011;5241;47.830;12.972;2023-03-01T14:07:53;19.40;;;16.87;;
10389;SDS011;5241;47.830;12.972;2023-03-01T14:10:19;20.23;;;17.07;;
10389;SDS011;5241;47.830;12.972;2023-03-01T14:12:47;20.43;;;16.33;;
10389;SDS011;5241;47.830;12.972;2023-03-01T14:15:55;19.57;;;16.23;;
10389;SDS011;5241;47.830;12.972;2023-03-01T14:18:33;21.83;;;16.97;;
10389;SDS011;5241;47.830;12.972;2023-03-01T14:21:08;21.67;;;16.83;;
10389;SDS011;5241;47.830;12.972;2023-03-01T14:23:34;21.47;;;17.93;;
10389;SDS011;5241;47.830;12.972;2023-03-01T14:26:03;23.83;;;17.63;;
10389;SDS011;5241;47.830;12.972;2023-03-01T14:28:29;22.67;;;17.33;;
10389;SDS011;5241;47.830;12.972;2023-03-01T14:30:59;21.37;;;17.30;;
10389;SDS011;5241;47.830;12.972;2023-03-01T14:33:29;26.73;;;17.87;;
10389;SDS011;5241;47.830;12.972;2023-03-01T14:36:05;23.63;;;18.27;;
10389;SDS011;5241;47.830;12.972;2023-03-01T14:38:34;25.70;;;18.93;;
10389;SDS011;5241;47.830;12.972;2023-03-01T14:41:03;24.57;;;18.10;;
10389;SDS011;5241;47.830;12.972;2023-03-01T14:43:32;25.50;;;18.70;;
10389;SDS011;5241;47.830;12.972;2023-03-01T14:45:58;22.40;;;17.97;;
10389;SDS011;5241;47.830;12.972;2023-03-01T14:48:24;21.37;;;17.47;;
10389;SDS011;5241;47.830;12.972;2023-03-01T14:50:51;23.57;;;17.07;;
10389;SDS011;5241;47.830;12.972;2023-03-01T14:53:19;25.70;;;18.50;;
10389;SDS011;5241;47.830;12.972;2023-03-01T14:55:48;26.77;;;18.53;;
10389;SDS011;5241;47.830;12.972;2023-03-01T14:58:19;28.10;;;17.53;;
10389;SDS011;5241;47.830;12.972;2023-03-01T15:01:01;23.00;;;17.57;;
10389;SDS011;5241;47.830;12.972;2023-03-01T15:06:05;23.23;;;17.03;;
10389;SDS011;5241;47.830;12.972;2023-03-01T15:08:33;28.70;;;17.23;;
10389;SDS011;5241;47.830;12.972;2023-03-01T15:13:26;24.83;;;16.93;;
10389;SDS011;5241;47.830;12.972;2023-03-01T15:16:01;22.97;;;16.47;;
10389;SDS011;5241;47.830;12.972;2023-03-01T15:18:36;24.43;;;18.37;;
10389;SDS011;5241;47.830;12.972;2023-03-01T15:21:06;27.63;;;18.47;;
10389;SDS011;5241;47.830;12.972;2023-03-01T15:23:34;26.87;;;18.97;;
10389;SDS011;5241;47.830;12.972;2023-03-01T15:26:02;35.13;;;22.40;;
10389;SDS011;5241;47.830;12.972;2023-03-01T15:28:31;27.87;;;18.90;;
10389;SDS011;5241;47.830;12.972;2023-03-01T15:33:46;27.23;;;18.33;;
10389;SDS011;5241;47.830;12.972;2023-03-01T15:38:56;23.20;;;16.73;;
10389;SDS011;5241;47.830;12.972;2023-03-01T15:41:27;24.03;;;15.97;;
10389;SDS011;5241;47.830;12.972;2023-03-01T15:44:14;27.30;;;17.50;;
10389;SDS011;5241;47.830;12.972;2023-03-01T15:46:44;21.00;;;15.70;;
10389;SDS011;5241;47.830;12.972;2023-03-01T15:49:21;20.37;;;15.43;;
10389;SDS011;5241;47.830;12.972;2023-03-01T15:51:57;23.13;;;16.57;;
10389;SDS011;5241;47.830;12.972;2023-03-01T15:54:24;26.17;;;18.93;;
10389;SDS011;5241;47.830;12.972;2023-03-01T15:56:51;22.30;;;16.40;;
10389;SDS011;5241;47.830;12.972;2023-03-01T15:59:17;23.73;;;17.87;;
10389;SDS011;5241;47.830;12.972;2023-03-01T16:01:44;26.80;;;19.67;;
10389;SDS011;5241;47.830;12.972;2023-03-01T16:04:11;24.47;;;17.37;;
10389;SDS011;5241;47.830;12.972;2023-03-01T16:06:41;26.30;;;18.90;;
10389;SDS011;5241;47.830;12.972;2023-03-01T16:09:06;25.93;;;18.40;;
10389;SDS011;5241;47.830;12.972;2023-03-01T16:11:32;28.80;;;19.90;;
10389;SDS011;5241;47.830;12.972;2023-03-01T16:14:01;27.33;;;19.47;;
10389;SDS011;5241;47.830;12.972;2023-03-01T16:16:27;26.57;;;19.83;;
10389;SDS011;5241;47.830;12.972;2023-03-01T16:18:52;29.30;;;19.93;;
10389;SDS011;5241;47.830;12.972;2023-03-01T16:21:20;33.80;;;22.90;;
10389;SDS011;5241;47.830;12.972;2023-03-01T16:23:49;29.53;;;21.03;;
10389;SDS011;5241;47.830;12.972;2023-03-01T16:26:16;29.47;;;20.53;;
10389;SDS011;5241;47.830;12.972;2023-03-01T16:28:43;28.53;;;20.50;;
10389;SDS011;5241;47.830;12.972;2023-03-01T16:31:10;34.53;;;24.37;;
10389;SDS011;5241;47.830;12.972;2023-03-01T16:33:36;32.73;;;21.13;;
10389;SDS011;5241;47.830;12.972;2023-03-01T16:36:06;31.33;;;21.07;;
10389;SDS011;5241;47.830;12.972;2023-03-01T16:38:33;35.27;;;23.53;;
10389;SDS011;5241;47.830;12.972;2023-03-01T16:40:59;40.17;;;25.63;;
10389;SDS011;5241;47.830;12.972;2023-03-01T16:43:25;39.57;;;27.20;;
10389;SDS011;5241;47.830;12.972;2023-03-01T16:45:51;38.83;;;25.67;;
10389;SDS011;5241;47.830;12.972;2023-03-01T16:48:16;34.30;;;24.27;;
10389;SDS011;5241;47.830;12.972;2023-03-01T16:50:42;35.00;;;24.37;;